sensor_id;sensor_type;location;lat;lon;timestamp;pressure;altitude;pressure_sealevel;temperature;humidity
46045;BME280;31781;54.094;13.428;2023-02-13T00:01:43;103670.13;;;8.11;71.38
46045;BME280;31781;54.094;13.428;2023-02-13T00:03:45;103664.81;;;8.10;71.58
46045;BME280;31781;54.094;13.428;2023-02-13T00:05:48;103655.69;;;8.11;71.06
46045;BME280;31781;54.094;13.428;2023-02-13T00:07:50;103658.41;;;8.11;71.13
46045;BME280;31781;54.094;13.428;2023-02-13T00:09:52;103657.53;;;8.10;71.33
46045;BME280;31781;54.094;13.428;2023-02-13T00:11:53;103659.38;;;8.10;70.75
46045;BME280;31781;54.094;13.428;2023-02-13T00:13:57;103655.81;;;8.09;71.09
46045;BME280;31781;54.094;13.428;2023-02-13T00:16:00;103662.97;;;8.10;70.57
46045;BME280;31781;54.094;13.428;2023-02-13T00:18:03;103660.25;;;8.10;70.80
46045;BME280;31781;54.094;13.428;2023-02-13T00:20:06;103653.09;;;8.09;70.90
46045;BME280;31781;54.094;13.428;2023-02-13T00:22:09;103662.09;;;8.10;70.66
46045;BME280;31781;54.094;13.428;2023-02-13T00:24:11;103662.09;;;8.10;70.13
46045;BME280;31781;54.094;13.428;2023-02-13T00:26:14;103654.97;;;8.09;70.04
46045;BME280;31781;54.094;13.428;2023-02-13T00:28:16;103651.25;;;8.10;70.23
46045;BME280;31781;54.094;13.428;2023-02-13T00:30:18;103659.38;;;8.10;70.78
46045;BME280;31781;54.094;13.428;2023-02-13T00:32:19;103658.66;;;8.08;70.25
46045;BME280;31781;54.094;13.428;2023-02-13T00:34:21;103656.81;;;8.08;70.38
46045;BME280;31781;54.094;13.428;2023-02-13T00:36:23;103654.09;;;8.08;70.42
46045;BME280;31781;54.094;13.428;2023-02-13T00:38:28;103659.63;;;8.07;70.19
46045;BME280;31781;54.094;13.428;2023-02-13T00:40:29;103660.63;;;8.06;69.86
46045;BME280;31781;54.094;13.428;2023-02-13T00:42:31;103661.47;;;8.06;69.76
46045;BME280;31781;54.094;13.428;2023-02-13T00:44:33;103662.34;;;8.07;69.50
46045;BME280;31781;54.094;13.428;2023-02-13T00:46:34;103668.75;;;8.06;69.84
46045;BME280;31781;54.094;13.428;2023-02-13T00:48:37;103670.47;;;8.07;70.03
46045;BME280;31781;54.094;13.428;2023-02-13T00:50:39;103673.19;;;8.07;69.83
46045;BME280;31781;54.094;13.428;2023-02-13T00:52:41;103667.03;;;8.05;69.73
46045;BME280;31781;54.094;13.428;2023-02-13T00:54:44;103667.91;;;8.05;69.89
46045;BME280;31781;54.094;13.428;2023-02-13T00:56:46;103668.88;;;8.04;69.76
46045;BME280;31781;54.094;13.428;2023-02-13T00:58:48;103667.03;;;8.05;69.16
46045;BME280;31781;54.094;13.428;2023-02-13T01:00:52;103669.88;;;8.03;69.24
46045;BME280;31781;54.094;13.428;2023-02-13T01:02:54;103673.44;;;8.04;69.50
46045;BME280;31781;54.094;13.428;2023-02-13T01:04:56;103667.28;;;8.02;69.76
46045;BME280;31781;54.094;13.428;2023-02-13T01:06:58;103675.28;;;8.03;69.44
46045;BME280;31781;54.094;13.428;2023-02-13T01:08:59;103674.31;;;8.04;69.71
46045;BME280;31781;54.094;13.428;2023-02-13T01:11:02;103665.31;;;8.04;69.91
46045;BME280;31781;54.094;13.428;2023-02-13T01:13:05;103668.03;;;8.04;69.96
46045;BME280;31781;54.094;13.428;2023-02-13T01:15:07;103666.28;;;8.03;69.58
46045;BME280;31781;54.094;13.428;2023-02-13T01:17:09;103674.41;;;8.03;69.53
46045;BME280;31781;54.094;13.428;2023-02-13T01:19:10;103680.72;;;8.03;69.45
46045;BME280;31781;54.094;13.428;2023-02-13T01:21:16;103679.72;;;8.04;69.77
46045;BME280;31781;54.094;13.428;2023-02-13T01:23:18;103675.44;;;8.02;69.52
46045;BME280;31781;54.094;13.428;2023-02-13T01:25:20;103678.97;;;8.02;69.54
46045;BME280;31781;54.094;13.428;2023-02-13T01:27:23;103677.13;;;8.03;69.57
46045;BME280;31781;54.094;13.428;2023-02-13T01:29:25;103669.13;;;8.01;70.06
46045;BME280;31781;54.094;13.428;2023-02-13T01:31:27;103677.28;;;8.01;70.28
46045;BME280;31781;54.094;13.428;2023-02-13T01:33:29;103673.69;;;8.01;70.19
46045;BME280;31781;54.094;13.428;2023-02-13T01:35:31;103664.69;;;8.00;70.45
46045;BME280;31781;54.094;13.428;2023-02-13T01:37:32;103665.56;;;8.01;70.85
46045;BME280;31781;54.094;13.428;2023-02-13T01:39:35;103664.69;;;8.00;70.51
46045;BME280;31781;54.094;13.428;2023-02-13T01:41:37;103663.81;;;8.00;70.21
46045;BME280;31781;54.094;13.428;2023-02-13T01:43:45;103662.94;;;7.99;71.12
46045;BME280;31781;54.094;13.428;2023-02-13T01:45:50;103663.09;;;7.98;70.88
46045;BME280;31781;54.094;13.428;2023-02-13T01:47:55;103656.81;;;7.97;70.97
46045;BME280;31781;54.094;13.428;2023-02-13T01:50:03;103660.50;;;7.96;71.32
46045;BME280;31781;54.094;13.428;2023-02-13T01:52:08;103655.06;;;7.96;71.26
46045;BME280;31781;54.094;13.428;2023-02-13T01:54:14;103654.19;;;7.96;71.26
46045;BME280;31781;54.094;13.428;2023-02-13T01:56:22;103656.03;;;7.95;71.29
46045;BME280;31781;54.094;13.428;2023-02-13T01:58:28;103646.22;;;7.94;71.32
46045;BME280;31781;54.094;13.428;2023-02-13T02:00:34;103645.19;;;7.95;71.35
46045;BME280;31781;54.094;13.428;2023-02-13T02:02:41;103639.03;;;7.93;71.23
46045;BME280;31781;54.094;13.428;2023-02-13T02:04:46;103644.47;;;7.93;70.83
46045;BME280;31781;54.094;13.428;2023-02-13T02:06:52;103641.88;;;7.92;71.21
46045;BME280;31781;54.094;13.428;2023-02-13T02:09:01;103639.16;;;7.92;71.85
46045;BME280;31781;54.094;13.428;2023-02-13T02:11:08;103641.00;;;7.91;71.17
46045;BME280;31781;54.094;13.428;2023-02-13T02:13:14;103647.28;;;7.92;71.27
46045;BME280;31781;54.094;13.428;2023-02-13T02:15:16;103639.28;;;7.90;71.06
46045;BME280;31781;54.094;13.428;2023-02-13T02:17:21;103643.84;;;7.90;71.38
46045;BME280;31781;54.094;13.428;2023-02-13T02:19:35;103641.13;;;7.90;71.49
46045;BME280;31781;54.094;13.428;2023-02-13T02:21:55;103636.59;;;7.90;71.61
46045;BME280;31781;54.094;13.428;2023-02-13T02:24:31;103634.84;;;7.89;71.50
46045;BME280;31781;54.094;13.428;2023-02-13T02:26:53;103630.53;;;7.87;72.20
46045;BME280;31781;54.094;13.428;2023-02-13T02:29:27;103641.25;;;7.88;71.87
46045;BME280;31781;54.094;13.428;2023-02-13T02:34:16;103633.47;;;7.83;71.36
46045;BME280;31781;54.094;13.428;2023-02-13T02:36:36;103635.34;;;7.83;72.12
46045;BME280;31781;54.094;13.428;2023-02-13T02:38:57;103632.75;;;7.81;72.05
46045;BME280;31781;54.094;13.428;2023-02-13T02:41:07;103636.44;;;7.80;71.84
46045;BME280;31781;54.094;13.428;2023-02-13T02:43:24;103629.16;;;7.81;71.99
46045;BME280;31781;54.094;13.428;2023-02-13T02:45:37;103639.13;;;7.80;71.47
46045;BME280;31781;54.094;13.428;2023-02-13T02:47:47;103635.69;;;7.78;71.46
46045;BME280;31781;54.094;13.428;2023-02-13T02:50:00;103631.25;;;7.77;71.41
46045;BME280;31781;54.094;13.428;2023-02-13T02:52:06;103631.25;;;7.77;71.72
46045;BME280;31781;54.094;13.428;2023-02-13T02:54:13;103617.69;;;7.77;71.29
46045;BME280;31781;54.094;13.428;2023-02-13T02:56:21;103618.81;;;7.75;71.35
46045;BME280;31781;54.094;13.428;2023-02-13T02:58:30;103620.56;;;7.76;71.66
46045;BME280;31781;54.094;13.428;2023-02-13T03:00:38;103621.53;;;7.75;71.20
46045;BME280;31781;54.094;13.428;2023-02-13T03:02:41;103622.50;;;7.74;71.59
46045;BME280;31781;54.094;13.428;2023-02-13T03:04:45;103625.09;;;7.75;71.70
46045;BME280;31781;54.094;13.428;2023-02-13T03:06:53;103620.66;;;7.74;71.54
46045;BME280;31781;54.094;13.428;2023-02-13T03:09:00;103608.09;;;7.73;71.72
46045;BME280;31781;54.094;13.428;2023-02-13T03:11:02;103615.34;;;7.73;71.16
46045;BME280;31781;54.094;13.428;2023-02-13T03:13:06;103616.34;;;7.72;71.38
46045;BME280;31781;54.094;13.428;2023-02-13T03:15:10;103623.63;;;7.71;71.03
46045;BME280;31781;54.094;13.428;2023-02-13T03:17:14;103624.59;;;7.70;71.03
46045;BME280;31781;54.094;13.428;2023-02-13T03:19:22;103620.91;;;7.71;71.17
46045;BME280;31781;54.094;13.428;2023-02-13T03:21:37;103621.78;;;7.72;71.20
46045;BME280;31781;54.094;13.428;2023-02-13T03:23:52;103613.75;;;7.70;70.91
46045;BME280;31781;54.094;13.428;2023-02-13T03:26:17;103611.78;;;7.72;71.22
46045;BME280;31781;54.094;13.428;2023-02-13T03:28:27;103613.75;;;7.70;71.10
46045;BME280;31781;54.094;13.428;2023-02-13T03:30:39;103622.84;;;7.69;70.61
46045;BME280;31781;54.094;13.428;2023-02-13T03:32:52;103612.03;;;7.69;70.59
46045;BME280;31781;54.094;13.428;2023-02-13T03:35:06;103609.31;;;7.69;70.90
46045;BME280;31781;54.094;13.428;2023-02-13T03:37:16;103632.72;;;7.70;69.87
46045;BME280;31781;54.094;13.428;2023-02-13T03:39:30;103623.72;;;7.70;70.62
46045;BME280;31781;54.094;13.428;2023-02-13T03:41:40;103618.31;;;7.70;70.75
46045;BME280;31781;54.094;13.428;2023-02-13T03:43:51;103623.88;;;7.68;70.29
46045;BME280;31781;54.094;13.428;2023-02-13T03:45:55;103617.44;;;7.69;70.33
46045;BME280;31781;54.094;13.428;2023-02-13T03:48:01;103613.03;;;7.68;69.90
46045;BME280;31781;54.094;13.428;2023-02-13T03:50:06;103619.41;;;7.67;69.75
46045;BME280;31781;54.094;13.428;2023-02-13T03:52:14;103620.28;;;7.68;69.91
46045;BME280;31781;54.094;13.428;2023-02-13T03:54:21;103623.00;;;7.68;70.15
46045;BME280;31781;54.094;13.428;2023-02-13T03:56:26;103632.00;;;7.68;69.79
46045;BME280;31781;54.094;13.428;2023-02-13T03:58:33;103628.41;;;7.68;69.44
46045;BME280;31781;54.094;13.428;2023-02-13T04:00:38;103625.72;;;7.68;69.76
46045;BME280;31781;54.094;13.428;2023-02-13T04:02:50;103637.53;;;7.67;69.68
46045;BME280;31781;54.094;13.428;2023-02-13T04:04:59;103640.13;;;7.68;69.75
46045;BME280;31781;54.094;13.428;2023-02-13T04:07:09;103637.53;;;7.67;69.10
46045;BME280;31781;54.094;13.428;2023-02-13T04:09:12;103634.81;;;7.67;69.17
46045;BME280;31781;54.094;13.428;2023-02-13T04:11:17;103637.53;;;7.67;69.10
46045;BME280;31781;54.094;13.428;2023-02-13T04:13:27;103633.84;;;7.68;69.20
46045;BME280;31781;54.094;13.428;2023-02-13T04:15:36;103641.97;;;7.68;69.50
46045;BME280;31781;54.094;13.428;2023-02-13T04:17:45;103644.69;;;7.68;69.29
46045;BME280;31781;54.094;13.428;2023-02-13T04:19:49;103643.91;;;7.66;69.12
46045;BME280;31781;54.094;13.428;2023-02-13T04:21:55;103646.53;;;7.67;68.98
46045;BME280;31781;54.094;13.428;2023-02-13T04:23:57;103642.06;;;7.66;69.35
46045;BME280;31781;54.094;13.428;2023-02-13T04:26:01;103638.50;;;7.66;69.19
46045;BME280;31781;54.094;13.428;2023-02-13T04:28:04;103639.38;;;7.66;68.65
46045;BME280;31781;54.094;13.428;2023-02-13T04:30:08;103638.38;;;7.67;69.02
46045;BME280;31781;54.094;13.428;2023-02-13T04:32:10;103645.66;;;7.67;68.96
46045;BME280;31781;54.094;13.428;2023-02-13T04:34:12;103633.06;;;7.66;68.55
46045;BME280;31781;54.094;13.428;2023-02-13T04:36:14;103629.50;;;7.65;68.42
46045;BME280;31781;54.094;13.428;2023-02-13T04:38:15;103631.38;;;7.65;68.44
46045;BME280;31781;54.094;13.428;2023-02-13T04:40:17;103634.91;;;7.65;68.77
46045;BME280;31781;54.094;13.428;2023-02-13T04:42:19;103641.22;;;7.66;68.91
46045;BME280;31781;54.094;13.428;2023-02-13T04:44:21;103644.06;;;7.64;68.32
46045;BME280;31781;54.094;13.428;2023-02-13T04:46:24;103642.22;;;7.65;68.59
46045;BME280;31781;54.094;13.428;2023-02-13T04:48:25;103643.03;;;7.65;68.56
46045;BME280;31781;54.094;13.428;2023-02-13T04:50:27;103641.34;;;7.64;68.67
46045;BME280;31781;54.094;13.428;2023-02-13T04:52:29;103637.63;;;7.65;68.16
46045;BME280;31781;54.094;13.428;2023-02-13T04:54:31;103638.63;;;7.64;68.08
46045;BME280;31781;54.094;13.428;2023-02-13T04:56:32;103638.63;;;7.64;68.31
46045;BME280;31781;54.094;13.428;2023-02-13T04:58:34;103630.50;;;7.64;68.07
46045;BME280;31781;54.094;13.428;2023-02-13T05:00:36;103636.91;;;7.63;68.59
46045;BME280;31781;54.094;13.428;2023-02-13T05:02:39;103630.59;;;7.63;68.65
46045;BME280;31781;54.094;13.428;2023-02-13T05:04:40;103628.78;;;7.63;68.23
46045;BME280;31781;54.094;13.428;2023-02-13T05:06:42;103636.03;;;7.63;68.59
46045;BME280;31781;54.094;13.428;2023-02-13T05:08:43;103640.72;;;7.61;68.17
46045;BME280;31781;54.094;13.428;2023-02-13T05:10:45;103639.72;;;7.62;68.12
46045;BME280;31781;54.094;13.428;2023-02-13T05:12:47;103641.56;;;7.61;68.13
46045;BME280;31781;54.094;13.428;2023-02-13T05:14:49;103638.00;;;7.61;68.45
46045;BME280;31781;54.094;13.428;2023-02-13T05:16:50;103639.84;;;7.60;68.71
46045;BME280;31781;54.094;13.428;2023-02-13T05:18:53;103638.97;;;7.60;68.83
46045;BME280;31781;54.094;13.428;2023-02-13T05:20:55;103641.69;;;7.60;68.64
46045;BME280;31781;54.094;13.428;2023-02-13T05:22:58;103640.81;;;7.59;68.09
46045;BME280;31781;54.094;13.428;2023-02-13T05:24:59;103647.22;;;7.58;68.53
46045;BME280;31781;54.094;13.428;2023-02-13T05:27:01;103649.06;;;7.58;67.98
46045;BME280;31781;54.094;13.428;2023-02-13T05:29:03;103650.06;;;7.57;68.09
46045;BME280;31781;54.094;13.428;2023-02-13T05:31:04;103651.78;;;7.58;68.53
46045;BME280;31781;54.094;13.428;2023-02-13T05:33:06;103658.06;;;7.58;68.76
46045;BME280;31781;54.094;13.428;2023-02-13T05:35:09;103663.63;;;7.57;68.68
46045;BME280;31781;54.094;13.428;2023-02-13T05:37:11;103657.31;;;7.56;68.42
46045;BME280;31781;54.094;13.428;2023-02-13T05:39:14;103650.16;;;7.55;68.27
46045;BME280;31781;54.094;13.428;2023-02-13T05:41:16;103654.72;;;7.55;68.58
46045;BME280;31781;54.094;13.428;2023-02-13T05:43:18;103658.28;;;7.55;68.55
46045;BME280;31781;54.094;13.428;2023-02-13T05:45:20;103654.00;;;7.53;68.42
46045;BME280;31781;54.094;13.428;2023-02-13T05:47:21;103659.28;;;7.54;68.47
46045;BME280;31781;54.094;13.428;2023-02-13T05:49:23;103655.72;;;7.54;68.71
46045;BME280;31781;54.094;13.428;2023-02-13T05:51:26;103659.41;;;7.53;68.09
46045;BME280;31781;54.094;13.428;2023-02-13T05:53:28;103660.28;;;7.53;68.83
46045;BME280;31781;54.094;13.428;2023-02-13T05:55:30;103666.66;;;7.52;68.30
46045;BME280;31781;54.094;13.428;2023-02-13T05:57:32;103673.94;;;7.52;68.64
46045;BME280;31781;54.094;13.428;2023-02-13T05:59:35;103673.81;;;7.53;68.26
46045;BME280;31781;54.094;13.428;2023-02-13T06:01:36;103673.06;;;7.51;68.13
46045;BME280;31781;54.094;13.428;2023-02-13T06:03:38;103668.50;;;7.52;67.67
46045;BME280;31781;54.094;13.428;2023-02-13T06:05:40;103671.22;;;7.52;68.28
46045;BME280;31781;54.094;13.428;2023-02-13T06:07:43;103681.09;;;7.53;68.11
46045;BME280;31781;54.094;13.428;2023-02-13T06:09:45;103684.78;;;7.52;68.30
46045;BME280;31781;54.094;13.428;2023-02-13T06:11:46;103683.03;;;7.51;68.34
46045;BME280;31781;54.094;13.428;2023-02-13T06:13:48;103685.88;;;7.49;67.87
46045;BME280;31781;54.094;13.428;2023-02-13T06:15:50;103679.44;;;7.50;68.23
46045;BME280;31781;54.094;13.428;2023-02-13T06:17:52;103677.75;;;7.49;67.79
46045;BME280;31781;54.094;13.428;2023-02-13T06:19:53;103676.88;;;7.49;68.27
46045;BME280;31781;54.094;13.428;2023-02-13T06:21:55;103679.69;;;7.47;68.43
46045;BME280;31781;54.094;13.428;2023-02-13T06:23:58;103691.41;;;7.48;68.12
46045;BME280;31781;54.094;13.428;2023-02-13T06:26:01;103679.69;;;7.47;68.08
46045;BME280;31781;54.094;13.428;2023-02-13T06:28:04;103682.53;;;7.46;68.00
46045;BME280;31781;54.094;13.428;2023-02-13T06:30:07;103676.25;;;7.45;67.83
46045;BME280;31781;54.094;13.428;2023-02-13T06:32:09;103672.56;;;7.46;68.08
46045;BME280;31781;54.094;13.428;2023-02-13T06:34:11;103685.25;;;7.46;68.31
46045;BME280;31781;54.094;13.428;2023-02-13T06:36:13;103684.38;;;7.45;68.05
46045;BME280;31781;54.094;13.428;2023-02-13T06:38:15;103683.50;;;7.45;67.90
46045;BME280;31781;54.094;13.428;2023-02-13T06:40:18;103679.94;;;7.44;68.11
46045;BME280;31781;54.094;13.428;2023-02-13T06:42:20;103684.38;;;7.45;68.40
46045;BME280;31781;54.094;13.428;2023-02-13T06:44:22;103689.78;;;7.45;68.34
46045;BME280;31781;54.094;13.428;2023-02-13T06:46:23;103696.19;;;7.44;67.89
46045;BME280;31781;54.094;13.428;2023-02-13T06:48:25;103691.63;;;7.45;67.96
46045;BME280;31781;54.094;13.428;2023-02-13T06:50:27;103699.75;;;7.45;68.41
46045;BME280;31781;54.094;13.428;2023-02-13T06:52:29;103694.44;;;7.43;67.89
46045;BME280;31781;54.094;13.428;2023-02-13T06:54:31;103693.47;;;7.44;68.05
46045;BME280;31781;54.094;13.428;2023-02-13T06:56:49;103690.78;;;7.44;68.02
46045;BME280;31781;54.094;13.428;2023-02-13T06:58:50;103689.03;;;7.43;67.91
46045;BME280;31781;54.094;13.428;2023-02-13T07:00:52;103698.16;;;7.42;67.90
46045;BME280;31781;54.094;13.428;2023-02-13T07:02:54;103701.59;;;7.44;67.71
46045;BME280;31781;54.094;13.428;2023-02-13T07:04:55;103689.03;;;7.43;67.52
46045;BME280;31781;54.094;13.428;2023-02-13T07:06:57;103684.47;;;7.44;68.42
46045;BME280;31781;54.094;13.428;2023-02-13T07:09:00;103685.50;;;7.43;68.04
46045;BME280;31781;54.094;13.428;2023-02-13T07:11:02;103693.47;;;7.44;67.53
46045;BME280;31781;54.094;13.428;2023-02-13T07:13:05;103687.19;;;7.44;68.16
46045;BME280;31781;54.094;13.428;2023-02-13T07:15:08;103688.19;;;7.43;68.05
46045;BME280;31781;54.094;13.428;2023-02-13T07:17:10;103688.06;;;7.44;67.70
46045;BME280;31781;54.094;13.428;2023-02-13T07:19:11;103686.31;;;7.43;67.95
46045;BME280;31781;54.094;13.428;2023-02-13T07:21:13;103689.03;;;7.43;67.40
46045;BME280;31781;54.094;13.428;2023-02-13T07:23:14;103693.47;;;7.44;67.82
46045;BME280;31781;54.094;13.428;2023-02-13T07:25:16;103692.59;;;7.44;67.57
46045;BME280;31781;54.094;13.428;2023-02-13T07:27:18;103693.47;;;7.44;67.86
46045;BME280;31781;54.094;13.428;2023-02-13T07:29:21;103693.63;;;7.43;68.13
46045;BME280;31781;54.094;13.428;2023-02-13T07:31:23;103692.50;;;7.45;67.69
46045;BME280;31781;54.094;13.428;2023-02-13T07:33:25;103685.25;;;7.46;67.88
46045;BME280;31781;54.094;13.428;2023-02-13T07:35:27;103691.53;;;7.46;68.07
46045;BME280;31781;54.094;13.428;2023-02-13T07:37:29;103688.81;;;7.46;67.45
46045;BME280;31781;54.094;13.428;2023-02-13T07:39:31;103696.81;;;7.48;67.43
46045;BME280;31781;54.094;13.428;2023-02-13T07:41:33;103690.53;;;7.47;67.65
46045;BME280;31781;54.094;13.428;2023-02-13T07:43:35;103698.66;;;7.47;68.13
46045;BME280;31781;54.094;13.428;2023-02-13T07:45:38;103703.09;;;7.48;67.89
46045;BME280;31781;54.094;13.428;2023-02-13T07:47:40;103702.13;;;7.49;67.69
46045;BME280;31781;54.094;13.428;2023-02-13T07:49:42;103695.84;;;7.49;67.57
46045;BME280;31781;54.094;13.428;2023-02-13T07:51:44;103704.69;;;7.51;67.48
46045;BME280;31781;54.094;13.428;2023-02-13T07:53:45;103708.28;;;7.51;67.49
46045;BME280;31781;54.094;13.428;2023-02-13T07:55:47;103711.84;;;7.52;67.46
46045;BME280;31781;54.094;13.428;2023-02-13T07:57:49;103705.47;;;7.53;67.37
46045;BME280;31781;54.094;13.428;2023-02-13T07:59:51;103713.59;;;7.53;67.62
46045;BME280;31781;54.094;13.428;2023-02-13T08:01:54;103719.88;;;7.53;67.41
46045;BME280;31781;54.094;13.428;2023-02-13T08:03:56;103710.88;;;7.53;67.87
46045;BME280;31781;54.094;13.428;2023-02-13T08:05:57;103706.19;;;7.55;67.68
46045;BME280;31781;54.094;13.428;2023-02-13T08:08:00;103705.22;;;7.56;67.85
46045;BME280;31781;54.094;13.428;2023-02-13T08:10:02;103699.81;;;7.56;67.79
46045;BME280;31781;54.094;13.428;2023-02-13T08:12:06;103711.38;;;7.58;67.50
46045;BME280;31781;54.094;13.428;2023-02-13T08:14:08;103705.13;;;7.57;67.44
46045;BME280;31781;54.094;13.428;2023-02-13T08:16:10;103711.28;;;7.59;67.28
46045;BME280;31781;54.094;13.428;2023-02-13T08:18:13;103706.72;;;7.60;67.14
46045;BME280;31781;54.094;13.428;2023-02-13T08:20:15;103701.16;;;7.61;66.91
46045;BME280;31781;54.094;13.428;2023-02-13T08:22:17;103695.75;;;7.61;67.82
46045;BME280;31781;54.094;13.428;2023-02-13T08:24:19;103700.44;;;7.59;67.42
46045;BME280;31781;54.094;13.428;2023-02-13T08:26:21;103710.94;;;7.64;67.81
46045;BME280;31781;54.094;13.428;2023-02-13T08:28:22;103706.38;;;7.64;67.76
46045;BME280;31781;54.094;13.428;2023-02-13T08:30:25;103711.66;;;7.66;67.41
46045;BME280;31781;54.094;13.428;2023-02-13T08:32:27;103709.09;;;7.64;66.85
46045;BME280;31781;54.094;13.428;2023-02-13T08:34:30;103711.56;;;7.67;66.80
46045;BME280;31781;54.094;13.428;2023-02-13T08:36:31;103714.13;;;7.69;67.30
46045;BME280;31781;54.094;13.428;2023-02-13T08:38:33;103720.41;;;7.69;67.16
46045;BME280;31781;54.094;13.428;2023-02-13T08:40:35;103715.00;;;7.69;67.14
46045;BME280;31781;54.094;13.428;2023-02-13T08:42:37;103720.31;;;7.71;66.94
46045;BME280;31781;54.094;13.428;2023-02-13T08:44:38;103719.44;;;7.70;66.51
46045;BME280;31781;54.094;13.428;2023-02-13T08:46:40;103734.59;;;7.73;67.60
46045;BME280;31781;54.094;13.428;2023-02-13T08:48:42;103729.06;;;7.74;67.38
46045;BME280;31781;54.094;13.428;2023-02-13T08:50:46;103735.34;;;7.75;67.34
46045;BME280;31781;54.094;13.428;2023-02-13T08:52:47;103727.09;;;7.76;67.26
46045;BME280;31781;54.094;13.428;2023-02-13T08:54:49;103734.25;;;7.77;66.77
46045;BME280;31781;54.094;13.428;2023-02-13T08:56:50;103732.31;;;7.79;66.56
46045;BME280;31781;54.094;13.428;2023-02-13T08:58:52;103735.75;;;7.81;66.94
46045;BME280;31781;54.094;13.428;2023-02-13T09:00:54;103731.19;;;7.82;66.69
46045;BME280;31781;54.094;13.428;2023-02-13T09:02:59;103725.53;;;7.85;66.92
46045;BME280;31781;54.094;13.428;2023-02-13T09:05:01;103726.41;;;7.86;67.00
46045;BME280;31781;54.094;13.428;2023-02-13T09:07:04;103727.25;;;7.86;66.18
46045;BME280;31781;54.094;13.428;2023-02-13T09:09:06;103729.84;;;7.88;66.34
46045;BME280;31781;54.094;13.428;2023-02-13T09:11:09;103730.47;;;7.91;66.77
46045;BME280;31781;54.094;13.428;2023-02-13T09:13:11;103729.50;;;7.92;66.24
46045;BME280;31781;54.094;13.428;2023-02-13T09:15:13;103733.06;;;7.93;66.00
46045;BME280;31781;54.094;13.428;2023-02-13T09:17:15;103736.50;;;7.95;65.99
46045;BME280;31781;54.094;13.428;2023-02-13T09:19:16;103729.13;;;7.97;66.17
46045;BME280;31781;54.094;13.428;2023-02-13T09:21:20;103737.13;;;7.98;65.85
46045;BME280;31781;54.094;13.428;2023-02-13T09:23:23;103728.91;;;8.00;65.75
46045;BME280;31781;54.094;13.428;2023-02-13T09:25:24;103725.22;;;8.01;66.36
46045;BME280;31781;54.094;13.428;2023-02-13T09:27:26;103728.91;;;8.00;65.35
46045;BME280;31781;54.094;13.428;2023-02-13T09:29:28;103731.34;;;8.03;65.51
46045;BME280;31781;54.094;13.428;2023-02-13T09:31:30;103730.38;;;8.04;64.84
46045;BME280;31781;54.094;13.428;2023-02-13T09:33:32;103731.97;;;8.06;65.14
46045;BME280;31781;54.094;13.428;2023-02-13T09:35:34;103726.44;;;8.08;65.95
46045;BME280;31781;54.094;13.428;2023-02-13T09:37:37;103721.91;;;8.08;65.52
46045;BME280;31781;54.094;13.428;2023-02-13T09:39:40;103738.03;;;8.10;65.58
46045;BME280;31781;54.094;13.428;2023-02-13T09:41:43;103723.50;;;8.11;65.26
46045;BME280;31781;54.094;13.428;2023-02-13T09:43:48;103718.84;;;8.13;65.82
46045;BME280;31781;54.094;13.428;2023-02-13T09:45:52;103725.09;;;8.13;64.89
46045;BME280;31781;54.094;13.428;2023-02-13T09:47:57;103721.41;;;8.14;64.97
46045;BME280;31781;54.094;13.428;2023-02-13T09:50:02;103716.75;;;8.16;65.69
46045;BME280;31781;54.094;13.428;2023-02-13T09:52:07;103730.06;;;8.19;65.43
46045;BME280;31781;54.094;13.428;2023-02-13T09:54:14;103733.63;;;8.20;65.52
46045;BME280;31781;54.094;13.428;2023-02-13T09:56:21;103732.63;;;8.21;66.01
46045;BME280;31781;54.094;13.428;2023-02-13T09:58:38;103737.84;;;8.24;65.99
46045;BME280;31781;54.094;13.428;2023-02-13T10:00:42;103742.25;;;8.25;65.74
46045;BME280;31781;54.094;13.428;2023-02-13T10:03:10;103738.34;;;8.29;66.86
46045;BME280;31781;54.094;13.428;2023-02-13T10:05:23;103746.38;;;8.30;65.71
46045;BME280;31781;54.094;13.428;2023-02-13T10:07:36;103748.94;;;8.32;65.94
46045;BME280;31781;54.094;13.428;2023-02-13T10:09:51;103752.53;;;8.32;65.41
46045;BME280;31781;54.094;13.428;2023-02-13T10:14:31;103750.44;;;8.36;65.08
46045;BME280;31781;54.094;13.428;2023-02-13T10:16:38;103753.03;;;8.38;65.28
46045;BME280;31781;54.094;13.428;2023-02-13T10:18:46;103745.63;;;8.40;65.31
46045;BME280;31781;54.094;13.428;2023-02-13T10:20:52;103740.09;;;8.41;64.50
46045;BME280;31781;54.094;13.428;2023-02-13T10:22:58;103740.81;;;8.43;65.00
46045;BME280;31781;54.094;13.428;2023-02-13T10:25:07;103740.72;;;8.45;64.69
46045;BME280;31781;54.094;13.428;2023-02-13T10:27:20;103735.16;;;8.46;65.20
46045;BME280;31781;54.094;13.428;2023-02-13T10:29:25;103740.56;;;8.46;64.74
46045;BME280;31781;54.094;13.428;2023-02-13T10:31:32;103742.19;;;8.49;64.77
46045;BME280;31781;54.094;13.428;2023-02-13T10:33:42;103742.06;;;8.50;65.55
46045;BME280;31781;54.094;13.428;2023-02-13T10:35:51;103741.84;;;8.53;65.12
46045;BME280;31781;54.094;13.428;2023-02-13T10:37:56;103751.69;;;8.54;64.69
46045;BME280;31781;54.094;13.428;2023-02-13T10:39:58;103748.97;;;8.54;64.16
46045;BME280;31781;54.094;13.428;2023-02-13T10:42:05;103743.44;;;8.56;64.75
46045;BME280;31781;54.094;13.428;2023-02-13T10:44:30;103746.88;;;8.58;65.70
46045;BME280;31781;54.094;13.428;2023-02-13T10:46:44;103745.91;;;8.59;64.77
46045;BME280;31781;54.094;13.428;2023-02-13T10:48:58;103742.19;;;8.60;65.65
46045;BME280;31781;54.094;13.428;2023-02-13T10:51:07;103740.22;;;8.62;65.11
46045;BME280;31781;54.094;13.428;2023-02-13T10:53:18;103736.63;;;8.61;64.29
46045;BME280;31781;54.094;13.428;2023-02-13T10:55:30;103737.38;;;8.63;64.74
46045;BME280;31781;54.094;13.428;2023-02-13T10:57:59;103735.28;;;8.67;65.11